Jacumba, California
Current Conditions -  °F | °C
As of 6:56 AM on Friday 28 Nov 2014 (Local Time) from KNJK Reporting Station
Clear Clear  
Wind Chill: 43°   Ceiling: Unl
Heat Index: 47°   Visibility: 8mi
Dew Point: 22°   Wind: 8mph
Humidity: 37%   Direction: 270°W
Pressure: 29.99"   Gusts: NA
Location:  32.62°N, 116.19°W
Report Text: KNJK 281456Z 27007KT 8SM CLR 08/M06 A2999 RMK AO2 SLP171 T00831056 53003
Loading
Personal Weather Stations






























Interactive Weather Map New forecast layout! Learn more

10-Day Weather Forecast

Advertisements
Track Severe Weather on mobile